Details From UBBB - Heydar Aliyev
To UBBG - Ganja
Flight Number -
Tags Decoded
Created
Modified
Stats Distance 6,541 nm / 12,113 km
Max Altitude 0 ft / 0 m
Waypoints 9
Social Downloads 0
Likes 0
Share VATSIM

Download

Looking for another format? Having issues loading an existing format? Contact us
Advertisement - Login to hide

Notes

Decoded

Route

UBBB UUDD ULLI LFPG LTBA LTAI LLBG OMDB UBBG

ID Type Via Altitude Latitude Longitude Leg Dist Tot Dist Heading (true) Name
O UBBB APT - 0 ft / 0 m 40.48000˚ 50.03500˚ - 0 nm - -
UUDD APT - 0 ft / 0 m 55.42000˚ 37.88000˚ 1018 nm 1018 nm 336° / 327° -
ULLI APT - 0 ft / 0 m 59.80973˚ 30.24537˚ 359 nm 1378 nm 320° / 314° -
LFPG APT - 0 ft / 0 m 49.02472˚ 2.52489˚ 1151 nm 2530 nm 248° / 225° -
LTBA APT - 0 ft / 0 m 40.96559˚ 28.80986˚ 1208 nm 3739 nm 104° / 122° -
LTAI APT - 0 ft / 0 m 36.91569˚ 30.79237˚ 260 nm 3999 nm 159° / 160° -
LLBG APT - 0 ft / 0 m 32.00417˚ 34.89117˚ 357 nm 4357 nm 144° / 147° -
OMDB APT - 0 ft / 0 m 25.26213˚ 55.34757˚ 1149 nm 5506 nm 105° / 115° -
O UBBG APT - 0 ft / 0 m 40.74464˚ 46.30592˚ 1033 nm 6540 nm 336° / 331° -

Altitude Profile

Advertisement - Login to hide

Weather


0- 5 10 15 20 25 30 35+ Temperature / ° C

Clouds and Precipitation
Forecast for 2018-05-25 12:00 UTC. Updated 4 hours ago

Ground ~20,000 ft ~40,000 ft Winds

UBBB

Details ICAO UBBB (GYD)
Name HEYDAR ALIYEV
Region Azerbiajan
Timezone Asia/Baku (UTC+4.0)
Stats Elevation 10 ft / 3 m (AMSL)
Location 40.470000° 50.052083°
Runways 2
Magnetic Variation 6.264° E

METAR

UBBB 251530Z 31006KT CAVOK 24/18 Q1007 R88/D NOSIG

Decode

TAF

TAF UBBB 251103Z 2512/2612 16006KT CAVOK TX31/2512Z TN15/2602Z TEMPO 2512/2515 VRB04KT TEMPO 2518/2523 13006KT BECMG 2523/2601 32006KT 3000 BR SCT007 BECMG 2603/2605 34012KT 9999 NSW SCT020 SCT080 TEMPO 2610/2612 35020G30KT FEW040CB

Decode

Departure Runways

ID Width Length Bearing (true) Bearing (mag) Surface Threshold Offset Overrun Length
16 197 ft / 60 m 9,110 ft / 2,777 m 159.17° 152.91° Asphalt 0 ft / 0 m 1,312 ft / 400 m
18 167 ft / 51 m 10,947 ft / 3,337 m 180.00° 173.74° Concrete 0 ft / 0 m 1,312 ft / 400 m
34 197 ft / 60 m 9,110 ft / 2,777 m 339.18° 332.92° Asphalt 0 ft / 0 m 656 ft / 200 m
36 167 ft / 51 m 10,947 ft / 3,337 m 0.00° 353.74° Concrete 444 ft / 135 m 541 ft / 165 m

UBBG

Details ICAO UBBG (KVD)
Name GANJA
Region Azerbiajan
Timezone Asia/Baku (UTC+4.0)
Stats Elevation 1,083 ft / 330 m (AMSL)
Location 40.737676° 46.317582°
Runways 1
Magnetic Variation 6.405° E

METAR

UBBG 251530Z 08004KT 9999 BKN100 28/11 Q1007 R30/CLRD// NOSIG

Decode

TAF

Not found

Destination Runways

ID Width Length Bearing (true) Bearing (mag) Surface Threshold Offset Overrun Length
12 144 ft / 44 m 8,211 ft / 2,503 m 128.25° 121.84° Concrete 0 ft / 0 m 0 ft / 0 m
30 144 ft / 44 m 8,211 ft / 2,503 m 308.26° 301.85° Concrete 0 ft / 0 m 1,630 ft / 497 m

Popular Alternatives